sensor_id;sensor_type;location;lat;lon;timestamp;pressure;altitude;pressure_sealevel;temperature
12061;BMP180;6091;51.432;6.880;2023-04-25T00:00:19;100215.00;;;23.50
12061;BMP180;6091;51.432;6.880;2023-04-25T00:02:46;100217.00;;;23.50
12061;BMP180;6091;51.432;6.880;2023-04-25T00:05:13;100214.00;;;23.50
12061;BMP180;6091;51.432;6.880;2023-04-25T00:07:42;100216.00;;;23.50
12061;BMP180;6091;51.432;6.880;2023-04-25T00:10:10;100213.00;;;23.50
12061;BMP180;6091;51.432;6.880;2023-04-25T00:12:38;100213.00;;;23.50
12061;BMP180;6091;51.432;6.880;2023-04-25T00:15:06;100219.00;;;23.50
12061;BMP180;6091;51.432;6.880;2023-04-25T00:17:34;100220.00;;;23.50
12061;BMP180;6091;51.432;6.880;2023-04-25T00:20:02;100224.00;;;23.50
12061;BMP180;6091;51.432;6.880;2023-04-25T00:22:32;100219.00;;;23.50
12061;BMP180;6091;51.432;6.880;2023-04-25T00:25:01;100222.00;;;23.50
12061;BMP180;6091;51.432;6.880;2023-04-25T00:27:28;100217.00;;;23.50
12061;BMP180;6091;51.432;6.880;2023-04-25T00:29:55;100220.00;;;23.40
12061;BMP180;6091;51.432;6.880;2023-04-25T00:32:22;100222.00;;;23.50
12061;BMP180;6091;51.432;6.880;2023-04-25T00:34:49;100218.00;;;23.50
12061;BMP180;6091;51.432;6.880;2023-04-25T00:37:16;100218.00;;;23.50
12061;BMP180;6091;51.432;6.880;2023-04-25T00:39:43;100225.00;;;23.50
12061;BMP180;6091;51.432;6.880;2023-04-25T00:42:10;100220.00;;;23.50
12061;BMP180;6091;51.432;6.880;2023-04-25T00:44:38;100226.00;;;23.50
12061;BMP180;6091;51.432;6.880;2023-04-25T00:47:06;100219.00;;;23.50
12061;BMP180;6091;51.432;6.880;2023-04-25T00:49:33;100218.00;;;23.40
12061;BMP180;6091;51.432;6.880;2023-04-25T00:52:00;100216.00;;;23.50
12061;BMP180;6091;51.432;6.880;2023-04-25T00:54:28;100223.00;;;23.50
12061;BMP180;6091;51.432;6.880;2023-04-25T00:56:55;100221.00;;;23.40
12061;BMP180;6091;51.432;6.880;2023-04-25T00:59:22;100231.00;;;23.40
12061;BMP180;6091;51.432;6.880;2023-04-25T01:01:49;100220.00;;;23.40
12061;BMP180;6091;51.432;6.880;2023-04-25T01:04:17;100221.00;;;23.40
12061;BMP180;6091;51.432;6.880;2023-04-25T01:06:45;100222.00;;;23.40
12061;BMP180;6091;51.432;6.880;2023-04-25T01:09:13;100219.00;;;23.40
12061;BMP180;6091;51.432;6.880;2023-04-25T01:11:40;100220.00;;;23.40
12061;BMP180;6091;51.432;6.880;2023-04-25T01:14:07;100230.00;;;23.40
12061;BMP180;6091;51.432;6.880;2023-04-25T01:16:34;100225.00;;;23.40
12061;BMP180;6091;51.432;6.880;2023-04-25T01:19:04;100231.00;;;23.40
12061;BMP180;6091;51.432;6.880;2023-04-25T01:21:32;100239.00;;;23.40
12061;BMP180;6091;51.432;6.880;2023-04-25T01:23:59;100229.00;;;23.40
12061;BMP180;6091;51.432;6.880;2023-04-25T01:26:27;100230.00;;;23.40
12061;BMP180;6091;51.432;6.880;2023-04-25T01:28:54;100237.00;;;23.40
12061;BMP180;6091;51.432;6.880;2023-04-25T01:31:21;100243.00;;;23.40
12061;BMP180;6091;51.432;6.880;2023-04-25T01:33:49;100242.00;;;23.40
12061;BMP180;6091;51.432;6.880;2023-04-25T01:36:17;100247.00;;;23.40
12061;BMP180;6091;51.432;6.880;2023-04-25T01:38:45;100241.00;;;23.40
12061;BMP180;6091;51.432;6.880;2023-04-25T01:41:14;100241.00;;;23.40
12061;BMP180;6091;51.432;6.880;2023-04-25T01:43:42;100239.00;;;23.40
12061;BMP180;6091;51.432;6.880;2023-04-25T01:46:11;100251.00;;;23.40
12061;BMP180;6091;51.432;6.880;2023-04-25T01:48:38;100253.00;;;23.40
12061;BMP180;6091;51.432;6.880;2023-04-25T01:51:05;100241.00;;;23.30
12061;BMP180;6091;51.432;6.880;2023-04-25T01:53:32;100256.00;;;23.30
12061;BMP180;6091;51.432;6.880;2023-04-25T01:55:59;100257.00;;;23.30
12061;BMP180;6091;51.432;6.880;2023-04-25T01:58:26;100249.00;;;23.30
12061;BMP180;6091;51.432;6.880;2023-04-25T02:00:53;100255.00;;;23.30
12061;BMP180;6091;51.432;6.880;2023-04-25T02:03:20;100258.00;;;23.30
12061;BMP180;6091;51.432;6.880;2023-04-25T02:05:47;100267.00;;;23.30
12061;BMP180;6091;51.432;6.880;2023-04-25T02:08:17;100262.00;;;23.30
12061;BMP180;6091;51.432;6.880;2023-04-25T02:10:45;100263.00;;;23.30
12061;BMP180;6091;51.432;6.880;2023-04-25T02:13:12;100264.00;;;23.30
12061;BMP180;6091;51.432;6.880;2023-04-25T02:15:39;100268.00;;;23.30
12061;BMP180;6091;51.432;6.880;2023-04-25T02:18:06;100264.00;;;23.30
12061;BMP180;6091;51.432;6.880;2023-04-25T02:20:33;100262.00;;;23.30
12061;BMP180;6091;51.432;6.880;2023-04-25T02:23:00;100261.00;;;23.30
12061;BMP180;6091;51.432;6.880;2023-04-25T02:25:28;100264.00;;;23.30
12061;BMP180;6091;51.432;6.880;2023-04-25T02:27:57;100275.00;;;23.30
12061;BMP180;6091;51.432;6.880;2023-04-25T02:30:25;100272.00;;;23.30
12061;BMP180;6091;51.432;6.880;2023-04-25T02:32:52;100266.00;;;23.30
12061;BMP180;6091;51.432;6.880;2023-04-25T02:35:19;100276.00;;;23.30
12061;BMP180;6091;51.432;6.880;2023-04-25T02:37:46;100273.00;;;23.30
12061;BMP180;6091;51.432;6.880;2023-04-25T02:40:13;100280.00;;;23.30
12061;BMP180;6091;51.432;6.880;2023-04-25T02:42:43;100277.00;;;23.30
12061;BMP180;6091;51.432;6.880;2023-04-25T02:45:12;100276.00;;;23.30
12061;BMP180;6091;51.432;6.880;2023-04-25T02:47:39;100275.00;;;23.30
12061;BMP180;6091;51.432;6.880;2023-04-25T02:50:07;100278.00;;;23.30
12061;BMP180;6091;51.432;6.880;2023-04-25T02:52:34;100280.00;;;23.30
12061;BMP180;6091;51.432;6.880;2023-04-25T02:55:02;100281.00;;;23.20
12061;BMP180;6091;51.432;6.880;2023-04-25T02:57:29;100288.00;;;23.20
12061;BMP180;6091;51.432;6.880;2023-04-25T02:59:56;100279.00;;;23.20
12061;BMP180;6091;51.432;6.880;2023-04-25T03:02:23;100280.00;;;23.20
12061;BMP180;6091;51.432;6.880;2023-04-25T03:04:50;100288.00;;;23.20
12061;BMP180;6091;51.432;6.880;2023-04-25T03:07:17;100286.00;;;23.20
12061;BMP180;6091;51.432;6.880;2023-04-25T03:09:44;100283.00;;;23.20
12061;BMP180;6091;51.432;6.880;2023-04-25T03:12:11;100288.00;;;23.20
12061;BMP180;6091;51.432;6.880;2023-04-25T03:14:37;100283.00;;;23.20
12061;BMP180;6091;51.432;6.880;2023-04-25T03:17:05;100286.00;;;23.20
12061;BMP180;6091;51.432;6.880;2023-04-25T03:19:32;100285.00;;;23.20
12061;BMP180;6091;51.432;6.880;2023-04-25T03:21:59;100289.00;;;23.20
12061;BMP180;6091;51.432;6.880;2023-04-25T03:24:26;100285.00;;;23.20
12061;BMP180;6091;51.432;6.880;2023-04-25T03:26:54;100289.00;;;23.20
12061;BMP180;6091;51.432;6.880;2023-04-25T03:29:20;100287.00;;;23.20
12061;BMP180;6091;51.432;6.880;2023-04-25T03:31:51;100288.00;;;23.20
12061;BMP180;6091;51.432;6.880;2023-04-25T03:34:18;100292.00;;;23.20
12061;BMP180;6091;51.432;6.880;2023-04-25T03:36:45;100295.00;;;23.20
12061;BMP180;6091;51.432;6.880;2023-04-25T03:39:12;100291.00;;;23.20
12061;BMP180;6091;51.432;6.880;2023-04-25T03:41:39;100294.00;;;23.20
12061;BMP180;6091;51.432;6.880;2023-04-25T03:44:06;100293.00;;;23.20
12061;BMP180;6091;51.432;6.880;2023-04-25T03:46:33;100292.00;;;23.20
12061;BMP180;6091;51.432;6.880;2023-04-25T03:49:00;100288.00;;;23.10
12061;BMP180;6091;51.432;6.880;2023-04-25T03:51:27;100293.00;;;23.20
12061;BMP180;6091;51.432;6.880;2023-04-25T03:53:54;100294.00;;;23.10
12061;BMP180;6091;51.432;6.880;2023-04-25T03:56:21;100303.00;;;23.10
12061;BMP180;6091;51.432;6.880;2023-04-25T03:58:48;100301.00;;;23.10
12061;BMP180;6091;51.432;6.880;2023-04-25T04:01:15;100301.00;;;23.10
12061;BMP180;6091;51.432;6.880;2023-04-25T04:03:42;100313.00;;;23.10
12061;BMP180;6091;51.432;6.880;2023-04-25T04:06:10;100311.00;;;23.10
12061;BMP180;6091;51.432;6.880;2023-04-25T04:08:37;100312.00;;;23.10
12061;BMP180;6091;51.432;6.880;2023-04-25T04:11:04;100310.00;;;23.10
12061;BMP180;6091;51.432;6.880;2023-04-25T04:13:34;100313.00;;;23.10
12061;BMP180;6091;51.432;6.880;2023-04-25T04:16:02;100312.00;;;23.10
12061;BMP180;6091;51.432;6.880;2023-04-25T04:18:31;100318.00;;;23.10
12061;BMP180;6091;51.432;6.880;2023-04-25T04:21:00;100316.00;;;23.10
12061;BMP180;6091;51.432;6.880;2023-04-25T04:23:27;100319.00;;;23.10
12061;BMP180;6091;51.432;6.880;2023-04-25T04:25:55;100326.00;;;23.10
12061;BMP180;6091;51.432;6.880;2023-04-25T04:28:24;100322.00;;;23.10
12061;BMP180;6091;51.432;6.880;2023-04-25T04:30:53;100331.00;;;23.10
12061;BMP180;6091;51.432;6.880;2023-04-25T04:33:20;100335.00;;;23.10
12061;BMP180;6091;51.432;6.880;2023-04-25T04:35:48;100332.00;;;23.10
12061;BMP180;6091;51.432;6.880;2023-04-25T04:38:15;100330.00;;;23.10
12061;BMP180;6091;51.432;6.880;2023-04-25T04:40:42;100335.00;;;23.10
12061;BMP180;6091;51.432;6.880;2023-04-25T04:43:12;100324.00;;;23.10
12061;BMP180;6091;51.432;6.880;2023-04-25T04:45:40;100336.00;;;23.00
12061;BMP180;6091;51.432;6.880;2023-04-25T04:48:07;100337.00;;;23.10
12061;BMP180;6091;51.432;6.880;2023-04-25T04:50:35;100335.00;;;23.10
12061;BMP180;6091;51.432;6.880;2023-04-25T04:53:03;100336.00;;;23.00
12061;BMP180;6091;51.432;6.880;2023-04-25T04:55:31;100343.00;;;23.00
12061;BMP180;6091;51.432;6.880;2023-04-25T04:57:58;100347.00;;;23.00
12061;BMP180;6091;51.432;6.880;2023-04-25T05:00:25;100348.00;;;23.00
12061;BMP180;6091;51.432;6.880;2023-04-25T05:02:56;100352.00;;;23.00
12061;BMP180;6091;51.432;6.880;2023-04-25T05:05:23;100359.00;;;23.00
12061;BMP180;6091;51.432;6.880;2023-04-25T05:07:51;100360.00;;;23.10
12061;BMP180;6091;51.432;6.880;2023-04-25T05:10:19;100368.00;;;23.00
12061;BMP180;6091;51.432;6.880;2023-04-25T05:12:47;100368.00;;;23.00
12061;BMP180;6091;51.432;6.880;2023-04-25T05:15:14;100371.00;;;23.00
12061;BMP180;6091;51.432;6.880;2023-04-25T05:17:41;100367.00;;;23.00
12061;BMP180;6091;51.432;6.880;2023-04-25T05:20:09;100375.00;;;23.00
12061;BMP180;6091;51.432;6.880;2023-04-25T05:22:36;100374.00;;;23.00
12061;BMP180;6091;51.432;6.880;2023-04-25T05:25:03;100375.00;;;23.00
12061;BMP180;6091;51.432;6.880;2023-04-25T05:27:31;100387.00;;;23.00
12061;BMP180;6091;51.432;6.880;2023-04-25T05:29:58;100389.00;;;23.00
12061;BMP180;6091;51.432;6.880;2023-04-25T05:32:26;100391.00;;;23.00
12061;BMP180;6091;51.432;6.880;2023-04-25T05:34:53;100391.00;;;23.00
12061;BMP180;6091;51.432;6.880;2023-04-25T05:37:21;100398.00;;;23.10
12061;BMP180;6091;51.432;6.880;2023-04-25T05:39:48;100404.00;;;23.10
12061;BMP180;6091;51.432;6.880;2023-04-25T05:42:18;100404.00;;;23.20
12061;BMP180;6091;51.432;6.880;2023-04-25T05:44:48;100408.00;;;23.50
12061;BMP180;6091;51.432;6.880;2023-04-25T05:47:15;100404.00;;;23.50
12061;BMP180;6091;51.432;6.880;2023-04-25T05:49:42;100420.00;;;24.00
12061;BMP180;6091;51.432;6.880;2023-04-25T05:52:09;100418.00;;;24.00
12061;BMP180;6091;51.432;6.880;2023-04-25T05:54:36;100425.00;;;24.10
12061;BMP180;6091;51.432;6.880;2023-04-25T05:57:06;100421.00;;;24.30
12061;BMP180;6091;51.432;6.880;2023-04-25T05:59:33;100428.00;;;24.40
12061;BMP180;6091;51.432;6.880;2023-04-25T06:02:00;100436.00;;;24.60
12061;BMP180;6091;51.432;6.880;2023-04-25T06:04:28;100437.00;;;24.70
12061;BMP180;6091;51.432;6.880;2023-04-25T06:06:55;100436.00;;;24.90
12061;BMP180;6091;51.432;6.880;2023-04-25T06:09:23;100449.00;;;25.00
12061;BMP180;6091;51.432;6.880;2023-04-25T06:11:49;100448.00;;;25.20
12061;BMP180;6091;51.432;6.880;2023-04-25T06:14:17;100451.00;;;25.30
12061;BMP180;6091;51.432;6.880;2023-04-25T06:16:44;100457.00;;;25.40
12061;BMP180;6091;51.432;6.880;2023-04-25T06:19:11;100451.00;;;25.60
12061;BMP180;6091;51.432;6.880;2023-04-25T06:21:38;100452.00;;;25.70
12061;BMP180;6091;51.432;6.880;2023-04-25T06:24:05;100459.00;;;25.80
12061;BMP180;6091;51.432;6.880;2023-04-25T06:26:32;100459.00;;;25.90
12061;BMP180;6091;51.432;6.880;2023-04-25T06:28:59;100462.00;;;26.00
12061;BMP180;6091;51.432;6.880;2023-04-25T06:31:26;100462.00;;;26.10
12061;BMP180;6091;51.432;6.880;2023-04-25T06:33:55;100463.00;;;26.20
12061;BMP180;6091;51.432;6.880;2023-04-25T06:36:22;100470.00;;;26.30
12061;BMP180;6091;51.432;6.880;2023-04-25T06:38:52;100462.00;;;26.40
12061;BMP180;6091;51.432;6.880;2023-04-25T06:41:21;100465.00;;;26.50
12061;BMP180;6091;51.432;6.880;2023-04-25T06:43:48;100464.00;;;26.50
12061;BMP180;6091;51.432;6.880;2023-04-25T06:46:16;100468.00;;;26.60
12061;BMP180;6091;51.432;6.880;2023-04-25T06:48:43;100472.00;;;26.70
12061;BMP180;6091;51.432;6.880;2023-04-25T06:51:10;100476.00;;;26.70
12061;BMP180;6091;51.432;6.880;2023-04-25T06:53:37;100474.00;;;26.80
12061;BMP180;6091;51.432;6.880;2023-04-25T06:56:05;100481.00;;;26.80
12061;BMP180;6091;51.432;6.880;2023-04-25T06:58:32;100483.00;;;26.80
12061;BMP180;6091;51.432;6.880;2023-04-25T07:00:59;100482.00;;;26.90
12061;BMP180;6091;51.432;6.880;2023-04-25T07:03:27;100485.00;;;26.90
12061;BMP180;6091;51.432;6.880;2023-04-25T07:05:54;100482.00;;;26.90
12061;BMP180;6091;51.432;6.880;2023-04-25T07:08:21;100500.00;;;27.20
12061;BMP180;6091;51.432;6.880;2023-04-25T07:10:52;100492.00;;;27.00
12061;BMP180;6091;51.432;6.880;2023-04-25T07:13:19;100500.00;;;26.90
12061;BMP180;6091;51.432;6.880;2023-04-25T07:15:46;100493.00;;;26.90
12061;BMP180;6091;51.432;6.880;2023-04-25T07:18:15;100489.00;;;26.90
12061;BMP180;6091;51.432;6.880;2023-04-25T07:20:42;100492.00;;;26.90
12061;BMP180;6091;51.432;6.880;2023-04-25T07:23:10;100500.00;;;26.80
12061;BMP180;6091;51.432;6.880;2023-04-25T07:25:37;100511.00;;;26.80
12061;BMP180;6091;51.432;6.880;2023-04-25T07:28:04;100504.00;;;26.80
12061;BMP180;6091;51.432;6.880;2023-04-25T07:30:31;100514.00;;;26.70
12061;BMP180;6091;51.432;6.880;2023-04-25T07:32:58;100517.00;;;26.70
12061;BMP180;6091;51.432;6.880;2023-04-25T07:35:26;100510.00;;;26.60
12061;BMP180;6091;51.432;6.880;2023-04-25T07:37:53;100507.00;;;26.60
12061;BMP180;6091;51.432;6.880;2023-04-25T07:40:24;100515.00;;;26.60
12061;BMP180;6091;51.432;6.880;2023-04-25T07:42:51;100517.00;;;26.60
12061;BMP180;6091;51.432;6.880;2023-04-25T07:45:21;100515.00;;;26.60
12061;BMP180;6091;51.432;6.880;2023-04-25T07:47:48;100526.00;;;26.60
12061;BMP180;6091;51.432;6.880;2023-04-25T07:50:16;100522.00;;;26.60
12061;BMP180;6091;51.432;6.880;2023-04-25T07:52:43;100523.00;;;26.60
12061;BMP180;6091;51.432;6.880;2023-04-25T07:55:10;100526.00;;;26.60
12061;BMP180;6091;51.432;6.880;2023-04-25T07:57:38;100536.00;;;26.60
12061;BMP180;6091;51.432;6.880;2023-04-25T08:00:09;100536.00;;;26.60
12061;BMP180;6091;51.432;6.880;2023-04-25T08:02:39;100538.00;;;26.60
12061;BMP180;6091;51.432;6.880;2023-04-25T08:05:07;100539.00;;;26.60
12061;BMP180;6091;51.432;6.880;2023-04-25T08:07:38;100545.00;;;26.60
12061;BMP180;6091;51.432;6.880;2023-04-25T08:10:09;100549.00;;;26.60
12061;BMP180;6091;51.432;6.880;2023-04-25T08:12:36;100550.00;;;26.50
12061;BMP180;6091;51.432;6.880;2023-04-25T08:15:06;100560.00;;;26.50
12061;BMP180;6091;51.432;6.880;2023-04-25T08:17:33;100551.00;;;26.50
12061;BMP180;6091;51.432;6.880;2023-04-25T08:20:00;100559.00;;;26.50
12061;BMP180;6091;51.432;6.880;2023-04-25T08:22:30;100559.00;;;26.60
12061;BMP180;6091;51.432;6.880;2023-04-25T08:24:57;100562.00;;;26.60
12061;BMP180;6091;51.432;6.880;2023-04-25T08:27:25;100560.00;;;26.60
12061;BMP180;6091;51.432;6.880;2023-04-25T08:29:52;100563.00;;;26.60
12061;BMP180;6091;51.432;6.880;2023-04-25T08:32:19;100561.00;;;26.60
12061;BMP180;6091;51.432;6.880;2023-04-25T08:34:48;100568.00;;;26.70
12061;BMP180;6091;51.432;6.880;2023-04-25T08:37:15;100580.00;;;26.70
12061;BMP180;6091;51.432;6.880;2023-04-25T08:39:42;100576.00;;;26.70
12061;BMP180;6091;51.432;6.880;2023-04-25T08:42:11;100582.00;;;26.70
12061;BMP180;6091;51.432;6.880;2023-04-25T08:44:39;100594.00;;;26.70
12061;BMP180;6091;51.432;6.880;2023-04-25T08:47:06;100598.00;;;26.80
12061;BMP180;6091;51.432;6.880;2023-04-25T08:49:34;100602.00;;;26.80
12061;BMP180;6091;51.432;6.880;2023-04-25T08:52:04;100602.00;;;26.80
12061;BMP180;6091;51.432;6.880;2023-04-25T08:54:34;100611.00;;;26.80
12061;BMP180;6091;51.432;6.880;2023-04-25T08:57:05;100604.00;;;26.90
12061;BMP180;6091;51.432;6.880;2023-04-25T08:59:40;100613.00;;;26.90
12061;BMP180;6091;51.432;6.880;2023-04-25T09:02:12;100614.00;;;26.80
12061;BMP180;6091;51.432;6.880;2023-04-25T09:04:45;100619.00;;;26.90
12061;BMP180;6091;51.432;6.880;2023-04-25T09:07:12;100620.00;;;26.90
12061;BMP180;6091;51.432;6.880;2023-04-25T09:09:42;100628.00;;;26.90
12061;BMP180;6091;51.432;6.880;2023-04-25T09:12:10;100633.00;;;26.90
12061;BMP180;6091;51.432;6.880;2023-04-25T09:14:38;100638.00;;;27.00
12061;BMP180;6091;51.432;6.880;2023-04-25T09:17:05;100631.00;;;27.00
12061;BMP180;6091;51.432;6.880;2023-04-25T09:19:36;100639.00;;;27.00
12061;BMP180;6091;51.432;6.880;2023-04-25T09:22:08;100642.00;;;27.40
12061;BMP180;6091;51.432;6.880;2023-04-25T09:24:42;100640.00;;;27.20
12061;BMP180;6091;51.432;6.880;2023-04-25T09:27:13;100638.00;;;27.10
12061;BMP180;6091;51.432;6.880;2023-04-25T09:29:45;100642.00;;;27.10
12061;BMP180;6091;51.432;6.880;2023-04-25T09:32:22;100648.00;;;27.40
12061;BMP180;6091;51.432;6.880;2023-04-25T09:34:53;100654.00;;;27.30
12061;BMP180;6091;51.432;6.880;2023-04-25T09:37:29;100653.00;;;27.30
12061;BMP180;6091;51.432;6.880;2023-04-25T09:39:59;100655.00;;;27.30
12061;BMP180;6091;51.432;6.880;2023-04-25T09:42:28;100656.00;;;27.30
12061;BMP180;6091;51.432;6.880;2023-04-25T09:45:00;100661.00;;;27.30
12061;BMP180;6091;51.432;6.880;2023-04-25T09:47:29;100661.00;;;27.30
12061;BMP180;6091;51.432;6.880;2023-04-25T09:50:00;100665.00;;;27.20
12061;BMP180;6091;51.432;6.880;2023-04-25T09:52:28;100668.00;;;27.00
12061;BMP180;6091;51.432;6.880;2023-04-25T09:54:57;100665.00;;;26.90
12061;BMP180;6091;51.432;6.880;2023-04-25T09:57:24;100667.00;;;26.80
12061;BMP180;6091;51.432;6.880;2023-04-25T09:59:55;100674.00;;;26.70
12061;BMP180;6091;51.432;6.880;2023-04-25T10:02:26;100670.00;;;26.70
12061;BMP180;6091;51.432;6.880;2023-04-25T10:04:58;100675.00;;;26.70
12061;BMP180;6091;51.432;6.880;2023-04-25T10:07:31;100679.00;;;26.70
12061;BMP180;6091;51.432;6.880;2023-04-25T10:10:03;100678.00;;;26.70
12061;BMP180;6091;51.432;6.880;2023-04-25T10:12:33;100666.00;;;26.70
12061;BMP180;6091;51.432;6.880;2023-04-25T10:15:02;100670.00;;;26.80
12061;BMP180;6091;51.432;6.880;2023-04-25T10:17:31;100678.00;;;26.80
12061;BMP180;6091;51.432;6.880;2023-04-25T10:20:02;100686.00;;;26.80
12061;BMP180;6091;51.432;6.880;2023-04-25T10:22:42;100691.00;;;26.90
12061;BMP180;6091;51.432;6.880;2023-04-25T10:25:12;100686.00;;;27.00
12061;BMP180;6091;51.432;6.880;2023-04-25T10:27:40;100680.00;;;27.00
12061;BMP180;6091;51.432;6.880;2023-04-25T10:30:15;100691.00;;;27.20
12061;BMP180;6091;51.432;6.880;2023-04-25T10:32:44;100691.00;;;27.30
12061;BMP180;6091;51.432;6.880;2023-04-25T10:35:22;100680.00;;;27.40
12061;BMP180;6091;51.432;6.880;2023-04-25T10:38:09;100694.00;;;27.50
12061;BMP180;6091;51.432;6.880;2023-04-25T10:40:37;100687.00;;;27.60
12061;BMP180;6091;51.432;6.880;2023-04-25T10:43:33;100694.00;;;27.80
12061;BMP180;6091;51.432;6.880;2023-04-25T10:46:02;100693.00;;;28.00
12061;BMP180;6091;51.432;6.880;2023-04-25T10:48:56;100690.00;;;28.00
12061;BMP180;6091;51.432;6.880;2023-04-25T10:54:18;100705.00;;;28.00
12061;BMP180;6091;51.432;6.880;2023-04-25T10:56:48;100711.00;;;28.00
12061;BMP180;6091;51.432;6.880;2023-04-25T10:59:19;100720.00;;;28.00
12061;BMP180;6091;51.432;6.880;2023-04-25T11:01:52;100725.00;;;28.00
12061;BMP180;6091;51.432;6.880;2023-04-25T11:04:28;100726.00;;;28.00
12061;BMP180;6091;51.432;6.880;2023-04-25T11:09:38;100722.00;;;27.90
12061;BMP180;6091;51.432;6.880;2023-04-25T11:12:08;100721.00;;;27.80
12061;BMP180;6091;51.432;6.880;2023-04-25T11:14:37;100732.00;;;27.80
12061;BMP180;6091;51.432;6.880;2023-04-25T11:17:04;100731.00;;;27.80
12061;BMP180;6091;51.432;6.880;2023-04-25T11:19:35;100738.00;;;27.80
12061;BMP180;6091;51.432;6.880;2023-04-25T11:22:03;100735.00;;;27.80
12061;BMP180;6091;51.432;6.880;2023-04-25T11:24:34;100737.00;;;27.80
12061;BMP180;6091;51.432;6.880;2023-04-25T11:27:03;100732.00;;;27.80
12061;BMP180;6091;51.432;6.880;2023-04-25T11:29:33;100734.00;;;27.80
12061;BMP180;6091;51.432;6.880;2023-04-25T11:32:01;100733.00;;;27.80
12061;BMP180;6091;51.432;6.880;2023-04-25T11:34:31;100726.00;;;27.80
12061;BMP180;6091;51.432;6.880;2023-04-25T11:37:02;100727.00;;;27.80
12061;BMP180;6091;51.432;6.880;2023-04-25T11:39:33;100732.00;;;27.80
12061;BMP180;6091;51.432;6.880;2023-04-25T11:42:00;100737.00;;;27.80
12061;BMP180;6091;51.432;6.880;2023-04-25T11:44:32;100734.00;;;27.80
12061;BMP180;6091;51.432;6.880;2023-04-25T11:47:00;100738.00;;;27.80
12061;BMP180;6091;51.432;6.880;2023-04-25T11:49:31;100737.00;;;27.80
12061;BMP180;6091;51.432;6.880;2023-04-25T11:51:59;100748.00;;;27.80
12061;BMP180;6091;51.432;6.880;2023-04-25T11:54:27;100736.00;;;27.70
12061;BMP180;6091;51.432;6.880;2023-04-25T11:56:54;100736.00;;;27.70
12061;BMP180;6091;51.432;6.880;2023-04-25T11:59:25;100748.00;;;27.60
12061;BMP180;6091;51.432;6.880;2023-04-25T12:01:53;100756.00;;;27.50
12061;BMP180;6091;51.432;6.880;2023-04-25T12:04:25;100761.00;;;27.40
12061;BMP180;6091;51.432;6.880;2023-04-25T12:06:57;100761.00;;;27.20
12061;BMP180;6091;51.432;6.880;2023-04-25T12:09:33;100758.00;;;27.00
12061;BMP180;6091;51.432;6.880;2023-04-25T12:12:01;100757.00;;;26.90
12061;BMP180;6091;51.432;6.880;2023-04-25T12:14:34;100755.00;;;26.90
12061;BMP180;6091;51.432;6.880;2023-04-25T12:17:04;100749.00;;;26.80
12061;BMP180;6091;51.432;6.880;2023-04-25T12:19:38;100742.00;;;26.70
12061;BMP180;6091;51.432;6.880;2023-04-25T12:22:24;100757.00;;;26.70
12061;BMP180;6091;51.432;6.880;2023-04-25T12:24:52;100758.00;;;26.70
12061;BMP180;6091;51.432;6.880;2023-04-25T12:27:21;100758.00;;;26.70
12061;BMP180;6091;51.432;6.880;2023-04-25T12:29:56;100758.00;;;26.70
12061;BMP180;6091;51.432;6.880;2023-04-25T12:32:24;100756.00;;;26.80
12061;BMP180;6091;51.432;6.880;2023-04-25T12:34:53;100759.00;;;27.00
12061;BMP180;6091;51.432;6.880;2023-04-25T12:37:21;100756.00;;;27.30
12061;BMP180;6091;51.432;6.880;2023-04-25T12:39:48;100750.00;;;27.60
12061;BMP180;6091;51.432;6.880;2023-04-25T12:42:15;100757.00;;;27.90
12061;BMP180;6091;51.432;6.880;2023-04-25T12:44:46;100752.00;;;28.30
12061;BMP180;6091;51.432;6.880;2023-04-25T12:47:16;100753.00;;;28.60
12061;BMP180;6091;51.432;6.880;2023-04-25T12:49:46;100759.00;;;29.00
12061;BMP180;6091;51.432;6.880;2023-04-25T12:52:14;100760.00;;;29.30
12061;BMP180;6091;51.432;6.880;2023-04-25T12:54:45;100756.00;;;29.60
12061;BMP180;6091;51.432;6.880;2023-04-25T12:57:12;100763.00;;;30.00
12061;BMP180;6091;51.432;6.880;2023-04-25T12:59:40;100761.00;;;30.30
12061;BMP180;6091;51.432;6.880;2023-04-25T13:02:07;100765.00;;;30.40
12061;BMP180;6091;51.432;6.880;2023-04-25T13:04:35;100762.00;;;30.40
12061;BMP180;6091;51.432;6.880;2023-04-25T13:07:03;100781.00;;;30.40
12061;BMP180;6091;51.432;6.880;2023-04-25T13:09:30;100784.00;;;30.20
12061;BMP180;6091;51.432;6.880;2023-04-25T13:11:58;100788.00;;;30.10
12061;BMP180;6091;51.432;6.880;2023-04-25T13:14:26;100794.00;;;29.80
12061;BMP180;6091;51.432;6.880;2023-04-25T13:16:53;100792.00;;;29.60
12061;BMP180;6091;51.432;6.880;2023-04-25T13:19:21;100796.00;;;29.40
12061;BMP180;6091;51.432;6.880;2023-04-25T13:21:49;100797.00;;;29.20
12061;BMP180;6091;51.432;6.880;2023-04-25T13:24:16;100785.00;;;29.00
12061;BMP180;6091;51.432;6.880;2023-04-25T13:26:47;100794.00;;;28.90
12061;BMP180;6091;51.432;6.880;2023-04-25T13:29:17;100794.00;;;28.80
12061;BMP180;6091;51.432;6.880;2023-04-25T13:31:50;100787.00;;;28.60
12061;BMP180;6091;51.432;6.880;2023-04-25T13:34:20;100790.00;;;28.60
12061;BMP180;6091;51.432;6.880;2023-04-25T13:36:47;100787.00;;;28.60
12061;BMP180;6091;51.432;6.880;2023-04-25T13:39:14;100786.00;;;28.60
12061;BMP180;6091;51.432;6.880;2023-04-25T13:41:42;100780.00;;;28.70
12061;BMP180;6091;51.432;6.880;2023-04-25T13:44:12;100784.00;;;28.70
12061;BMP180;6091;51.432;6.880;2023-04-25T13:46:39;100780.00;;;28.80
12061;BMP180;6091;51.432;6.880;2023-04-25T13:49:14;100784.00;;;28.90
12061;BMP180;6091;51.432;6.880;2023-04-25T13:51:41;100774.00;;;28.90
12061;BMP180;6091;51.432;6.880;2023-04-25T13:54:09;100784.00;;;29.00
12061;BMP180;6091;51.432;6.880;2023-04-25T13:56:37;100768.00;;;28.90
12061;BMP180;6091;51.432;6.880;2023-04-25T13:59:11;100776.00;;;29.00
12061;BMP180;6091;51.432;6.880;2023-04-25T14:01:39;100773.00;;;29.00
12061;BMP180;6091;51.432;6.880;2023-04-25T14:04:06;100772.00;;;28.90
12061;BMP180;6091;51.432;6.880;2023-04-25T14:06:41;100781.00;;;28.80
12061;BMP180;6091;51.432;6.880;2023-04-25T14:09:09;100770.00;;;28.70
12061;BMP180;6091;51.432;6.880;2023-04-25T14:11:37;100780.00;;;28.60
12061;BMP180;6091;51.432;6.880;2023-04-25T14:14:07;100780.00;;;28.60
12061;BMP180;6091;51.432;6.880;2023-04-25T14:16:35;100776.00;;;28.50
12061;BMP180;6091;51.432;6.880;2023-04-25T14:19:03;100770.00;;;28.40
12061;BMP180;6091;51.432;6.880;2023-04-25T14:21:30;100771.00;;;28.20